sensor_id;sensor_type;location;lat;lon;timestamp;P1;durP1;ratioP1;P2;durP2;ratioP2
66597;SDS011;57424;53.128;6.406;2023-04-25T00:00:09;4.82;;;1.90;;
66597;SDS011;57424;53.128;6.406;2023-04-25T00:02:35;5.53;;;2.33;;
66597;SDS011;57424;53.128;6.406;2023-04-25T00:05:01;4.32;;;2.10;;
66597;SDS011;57424;53.128;6.406;2023-04-25T00:07:28;5.00;;;1.88;;
66597;SDS011;57424;53.128;6.406;2023-04-25T00:09:53;4.95;;;1.80;;
66597;SDS011;57424;53.128;6.406;2023-04-25T00:12:19;5.07;;;1.90;;
66597;SDS011;57424;53.128;6.406;2023-04-25T00:14:46;6.05;;;2.20;;
66597;SDS011;57424;53.128;6.406;2023-04-25T00:19:41;4.85;;;1.73;;
66597;SDS011;57424;53.128;6.406;2023-04-25T00:22:07;4.68;;;1.70;;
66597;SDS011;57424;53.128;6.406;2023-04-25T00:24:32;3.95;;;1.73;;
66597;SDS011;57424;53.128;6.406;2023-04-25T00:26:58;6.13;;;2.00;;
66597;SDS011;57424;53.128;6.406;2023-04-25T00:29:23;4.30;;;1.75;;
66597;SDS011;57424;53.128;6.406;2023-04-25T00:31:49;4.00;;;1.73;;
66597;SDS011;57424;53.128;6.406;2023-04-25T00:34:15;6.35;;;1.75;;
66597;SDS011;57424;53.128;6.406;2023-04-25T00:36:40;6.13;;;2.13;;
66597;SDS011;57424;53.128;6.406;2023-04-25T00:39:06;6.43;;;2.08;;
66597;SDS011;57424;53.128;6.406;2023-04-25T00:41:31;5.40;;;1.85;;
66597;SDS011;57424;53.128;6.406;2023-04-25T00:43:57;4.28;;;1.75;;
66597;SDS011;57424;53.128;6.406;2023-04-25T00:46:25;4.00;;;2.15;;
66597;SDS011;57424;53.128;6.406;2023-04-25T00:48:51;4.50;;;1.65;;
66597;SDS011;57424;53.128;6.406;2023-04-25T00:51:19;3.55;;;1.45;;
66597;SDS011;57424;53.128;6.406;2023-04-25T00:53:45;5.30;;;2.15;;
66597;SDS011;57424;53.128;6.406;2023-04-25T00:56:12;5.97;;;1.90;;
66597;SDS011;57424;53.128;6.406;2023-04-25T00:58:38;5.38;;;1.90;;
66597;SDS011;57424;53.128;6.406;2023-04-25T01:01:06;4.65;;;1.95;;
66597;SDS011;57424;53.128;6.406;2023-04-25T01:03:35;8.63;;;1.95;;
66597;SDS011;57424;53.128;6.406;2023-04-25T01:06:06;5.40;;;1.83;;
66597;SDS011;57424;53.128;6.406;2023-04-25T01:08:32;5.53;;;1.80;;
66597;SDS011;57424;53.128;6.406;2023-04-25T01:10:59;5.53;;;2.03;;
66597;SDS011;57424;53.128;6.406;2023-04-25T01:13:24;3.72;;;1.63;;
66597;SDS011;57424;53.128;6.406;2023-04-25T01:15:50;3.42;;;2.03;;
66597;SDS011;57424;53.128;6.406;2023-04-25T01:18:16;4.50;;;2.00;;
66597;SDS011;57424;53.128;6.406;2023-04-25T01:20:42;5.80;;;2.15;;
66597;SDS011;57424;53.128;6.406;2023-04-25T01:23:08;4.68;;;1.80;;
66597;SDS011;57424;53.128;6.406;2023-04-25T01:25:35;4.43;;;1.88;;
66597;SDS011;57424;53.128;6.406;2023-04-25T01:28:01;5.80;;;2.53;;
66597;SDS011;57424;53.128;6.406;2023-04-25T01:30:27;3.42;;;1.73;;
66597;SDS011;57424;53.128;6.406;2023-04-25T01:32:54;4.88;;;1.88;;
66597;SDS011;57424;53.128;6.406;2023-04-25T01:35:21;4.47;;;1.70;;
66597;SDS011;57424;53.128;6.406;2023-04-25T01:37:48;7.20;;;2.22;;
66597;SDS011;57424;53.128;6.406;2023-04-25T01:40:14;7.10;;;2.00;;
66597;SDS011;57424;53.128;6.406;2023-04-25T01:42:41;5.00;;;1.88;;
66597;SDS011;57424;53.128;6.406;2023-04-25T01:45:09;4.18;;;1.70;;
66597;SDS011;57424;53.128;6.406;2023-04-25T01:47:36;4.40;;;1.85;;
66597;SDS011;57424;53.128;6.406;2023-04-25T01:50:05;3.33;;;1.85;;
66597;SDS011;57424;53.128;6.406;2023-04-25T01:52:32;6.15;;;1.88;;
66597;SDS011;57424;53.128;6.406;2023-04-25T01:54:58;2.65;;;1.60;;
66597;SDS011;57424;53.128;6.406;2023-04-25T01:59:51;3.78;;;1.80;;
66597;SDS011;57424;53.128;6.406;2023-04-25T02:02:19;3.53;;;1.63;;
66597;SDS011;57424;53.128;6.406;2023-04-25T02:04:45;3.00;;;1.52;;
66597;SDS011;57424;53.128;6.406;2023-04-25T02:07:11;3.95;;;1.52;;
66597;SDS011;57424;53.128;6.406;2023-04-25T02:09:36;7.43;;;1.92;;
66597;SDS011;57424;53.128;6.406;2023-04-25T02:12:02;4.57;;;1.60;;
66597;SDS011;57424;53.128;6.406;2023-04-25T02:14:27;4.07;;;1.70;;
66597;SDS011;57424;53.128;6.406;2023-04-25T02:16:53;4.78;;;1.88;;
66597;SDS011;57424;53.128;6.406;2023-04-25T02:19:19;4.88;;;1.77;;
66597;SDS011;57424;53.128;6.406;2023-04-25T02:21:44;3.95;;;2.05;;
66597;SDS011;57424;53.128;6.406;2023-04-25T02:24:10;3.13;;;1.50;;
66597;SDS011;57424;53.128;6.406;2023-04-25T02:26:36;4.90;;;1.60;;
66597;SDS011;57424;53.128;6.406;2023-04-25T02:29:01;3.85;;;1.50;;
66597;SDS011;57424;53.128;6.406;2023-04-25T02:31:27;2.83;;;1.40;;
66597;SDS011;57424;53.128;6.406;2023-04-25T02:33:52;4.93;;;1.95;;
66597;SDS011;57424;53.128;6.406;2023-04-25T02:36:18;4.65;;;1.70;;
66597;SDS011;57424;53.128;6.406;2023-04-25T02:38:43;5.03;;;1.75;;
66597;SDS011;57424;53.128;6.406;2023-04-25T02:41:09;5.05;;;1.65;;
66597;SDS011;57424;53.128;6.406;2023-04-25T02:43:35;4.30;;;1.50;;
66597;SDS011;57424;53.128;6.406;2023-04-25T02:46:00;3.67;;;1.60;;
66597;SDS011;57424;53.128;6.406;2023-04-25T02:48:26;4.30;;;1.58;;
66597;SDS011;57424;53.128;6.406;2023-04-25T02:50:51;4.47;;;1.50;;
66597;SDS011;57424;53.128;6.406;2023-04-25T02:53:17;3.70;;;1.30;;
66597;SDS011;57424;53.128;6.406;2023-04-25T02:55:42;4.65;;;1.58;;
66597;SDS011;57424;53.128;6.406;2023-04-25T02:58:08;4.25;;;1.58;;
66597;SDS011;57424;53.128;6.406;2023-04-25T03:00:33;2.83;;;1.60;;
66597;SDS011;57424;53.128;6.406;2023-04-25T03:02:59;3.05;;;1.50;;
66597;SDS011;57424;53.128;6.406;2023-04-25T03:05:25;5.35;;;1.90;;
66597;SDS011;57424;53.128;6.406;2023-04-25T03:07:51;4.57;;;1.52;;
66597;SDS011;57424;53.128;6.406;2023-04-25T03:10:16;3.38;;;1.48;;
66597;SDS011;57424;53.128;6.406;2023-04-25T03:12:42;4.15;;;1.80;;
66597;SDS011;57424;53.128;6.406;2023-04-25T03:15:07;3.42;;;1.45;;
66597;SDS011;57424;53.128;6.406;2023-04-25T03:17:33;6.20;;;1.60;;
66597;SDS011;57424;53.128;6.406;2023-04-25T03:19:59;4.00;;;1.67;;
66597;SDS011;57424;53.128;6.406;2023-04-25T03:22:24;4.18;;;1.40;;
66597;SDS011;57424;53.128;6.406;2023-04-25T03:24:50;6.03;;;1.38;;
66597;SDS011;57424;53.128;6.406;2023-04-25T03:27:16;3.40;;;1.50;;
66597;SDS011;57424;53.128;6.406;2023-04-25T03:29:42;4.57;;;1.55;;
66597;SDS011;57424;53.128;6.406;2023-04-25T03:32:08;4.85;;;1.83;;
66597;SDS011;57424;53.128;6.406;2023-04-25T03:34:34;3.78;;;1.75;;
66597;SDS011;57424;53.128;6.406;2023-04-25T03:36:59;4.07;;;1.50;;
66597;SDS011;57424;53.128;6.406;2023-04-25T03:39:25;3.25;;;1.60;;
66597;SDS011;57424;53.128;6.406;2023-04-25T03:41:51;4.00;;;1.70;;
66597;SDS011;57424;53.128;6.406;2023-04-25T03:44:17;3.83;;;1.65;;
66597;SDS011;57424;53.128;6.406;2023-04-25T03:46:42;3.40;;;1.38;;
66597;SDS011;57424;53.128;6.406;2023-04-25T03:49:08;4.10;;;1.50;;
66597;SDS011;57424;53.128;6.406;2023-04-25T03:51:34;3.42;;;1.48;;
66597;SDS011;57424;53.128;6.406;2023-04-25T03:53:59;5.22;;;1.80;;
66597;SDS011;57424;53.128;6.406;2023-04-25T03:56:25;4.72;;;1.55;;
66597;SDS011;57424;53.128;6.406;2023-04-25T03:58:51;3.13;;;1.40;;
66597;SDS011;57424;53.128;6.406;2023-04-25T04:01:16;3.92;;;1.45;;
66597;SDS011;57424;53.128;6.406;2023-04-25T04:03:42;4.05;;;1.75;;
66597;SDS011;57424;53.128;6.406;2023-04-25T04:06:08;2.15;;;1.17;;
66597;SDS011;57424;53.128;6.406;2023-04-25T04:08:34;5.07;;;1.52;;
66597;SDS011;57424;53.128;6.406;2023-04-25T04:10:59;2.88;;;1.20;;
66597;SDS011;57424;53.128;6.406;2023-04-25T04:13:26;3.17;;;1.50;;
66597;SDS011;57424;53.128;6.406;2023-04-25T04:15:52;3.75;;;1.33;;
66597;SDS011;57424;53.128;6.406;2023-04-25T04:18:18;5.10;;;1.70;;
66597;SDS011;57424;53.128;6.406;2023-04-25T04:20:43;3.78;;;1.42;;
66597;SDS011;57424;53.128;6.406;2023-04-25T04:23:09;3.63;;;1.45;;
66597;SDS011;57424;53.128;6.406;2023-04-25T04:25:35;6.68;;;1.40;;
66597;SDS011;57424;53.128;6.406;2023-04-25T04:28:01;2.80;;;1.40;;
66597;SDS011;57424;53.128;6.406;2023-04-25T04:30:27;3.42;;;1.48;;
66597;SDS011;57424;53.128;6.406;2023-04-25T04:32:54;3.70;;;1.85;;
66597;SDS011;57424;53.128;6.406;2023-04-25T04:35:20;3.17;;;1.52;;
66597;SDS011;57424;53.128;6.406;2023-04-25T04:37:46;4.30;;;1.48;;
66597;SDS011;57424;53.128;6.406;2023-04-25T04:40:13;5.15;;;1.50;;
66597;SDS011;57424;53.128;6.406;2023-04-25T04:42:42;2.78;;;1.45;;
66597;SDS011;57424;53.128;6.406;2023-04-25T04:45:09;4.55;;;1.73;;
66597;SDS011;57424;53.128;6.406;2023-04-25T04:47:35;4.60;;;1.73;;
66597;SDS011;57424;53.128;6.406;2023-04-25T04:50:01;3.92;;;1.60;;
66597;SDS011;57424;53.128;6.406;2023-04-25T04:52:27;4.00;;;1.40;;
66597;SDS011;57424;53.128;6.406;2023-04-25T04:54:53;4.50;;;1.42;;
66597;SDS011;57424;53.128;6.406;2023-04-25T04:57:18;3.65;;;1.38;;
66597;SDS011;57424;53.128;6.406;2023-04-25T04:59:44;2.88;;;1.50;;
66597;SDS011;57424;53.128;6.406;2023-04-25T05:02:10;4.15;;;1.52;;
66597;SDS011;57424;53.128;6.406;2023-04-25T05:04:36;4.30;;;1.35;;
66597;SDS011;57424;53.128;6.406;2023-04-25T05:07:01;3.70;;;1.30;;
66597;SDS011;57424;53.128;6.406;2023-04-25T05:09:27;3.22;;;1.20;;
66597;SDS011;57424;53.128;6.406;2023-04-25T05:11:53;2.33;;;1.30;;
66597;SDS011;57424;53.128;6.406;2023-04-25T05:14:18;4.15;;;1.35;;
66597;SDS011;57424;53.128;6.406;2023-04-25T05:16:44;3.35;;;1.25;;
66597;SDS011;57424;53.128;6.406;2023-04-25T05:19:09;2.28;;;1.25;;
66597;SDS011;57424;53.128;6.406;2023-04-25T05:21:35;3.65;;;1.27;;
66597;SDS011;57424;53.128;6.406;2023-04-25T05:24:01;2.78;;;1.25;;
66597;SDS011;57424;53.128;6.406;2023-04-25T05:26:26;3.75;;;1.38;;
66597;SDS011;57424;53.128;6.406;2023-04-25T05:28:56;2.75;;;1.33;;
66597;SDS011;57424;53.128;6.406;2023-04-25T05:31:22;1.50;;;1.00;;
66597;SDS011;57424;53.128;6.406;2023-04-25T05:33:47;3.00;;;1.48;;
66597;SDS011;57424;53.128;6.406;2023-04-25T05:36:13;2.53;;;1.45;;
66597;SDS011;57424;53.128;6.406;2023-04-25T05:38:38;2.25;;;1.10;;
66597;SDS011;57424;53.128;6.406;2023-04-25T05:41:04;2.10;;;1.10;;
66597;SDS011;57424;53.128;6.406;2023-04-25T05:43:30;3.70;;;1.50;;
66597;SDS011;57424;53.128;6.406;2023-04-25T05:45:56;2.00;;;1.13;;
66597;SDS011;57424;53.128;6.406;2023-04-25T05:48:21;3.97;;;1.60;;
66597;SDS011;57424;53.128;6.406;2023-04-25T05:50:47;2.13;;;1.33;;
66597;SDS011;57424;53.128;6.406;2023-04-25T05:53:12;2.92;;;1.42;;
66597;SDS011;57424;53.128;6.406;2023-04-25T05:55:38;4.30;;;1.50;;
66597;SDS011;57424;53.128;6.406;2023-04-25T05:58:05;1.73;;;0.80;;
66597;SDS011;57424;53.128;6.406;2023-04-25T06:02:57;2.75;;;1.25;;
66597;SDS011;57424;53.128;6.406;2023-04-25T06:05:23;3.72;;;1.33;;
66597;SDS011;57424;53.128;6.406;2023-04-25T06:07:48;1.75;;;1.30;;
66597;SDS011;57424;53.128;6.406;2023-04-25T06:10:14;4.47;;;1.70;;
66597;SDS011;57424;53.128;6.406;2023-04-25T06:12:39;3.50;;;1.23;;
66597;SDS011;57424;53.128;6.406;2023-04-25T06:15:05;2.97;;;1.25;;
66597;SDS011;57424;53.128;6.406;2023-04-25T06:17:31;1.77;;;1.17;;
66597;SDS011;57424;53.128;6.406;2023-04-25T06:19:57;2.78;;;1.33;;
66597;SDS011;57424;53.128;6.406;2023-04-25T06:22:23;2.42;;;1.20;;
66597;SDS011;57424;53.128;6.406;2023-04-25T06:24:48;3.45;;;1.50;;
66597;SDS011;57424;53.128;6.406;2023-04-25T06:27:14;3.88;;;1.23;;
66597;SDS011;57424;53.128;6.406;2023-04-25T06:29:39;2.90;;;1.00;;
66597;SDS011;57424;53.128;6.406;2023-04-25T06:32:05;3.78;;;1.20;;
66597;SDS011;57424;53.128;6.406;2023-04-25T06:34:30;2.30;;;0.98;;
66597;SDS011;57424;53.128;6.406;2023-04-25T06:36:56;2.95;;;1.15;;
66597;SDS011;57424;53.128;6.406;2023-04-25T06:39:21;3.35;;;1.30;;
66597;SDS011;57424;53.128;6.406;2023-04-25T06:41:48;5.40;;;1.27;;
66597;SDS011;57424;53.128;6.406;2023-04-25T06:44:14;5.80;;;1.20;;
66597;SDS011;57424;53.128;6.406;2023-04-25T06:46:40;3.75;;;1.27;;
66597;SDS011;57424;53.128;6.406;2023-04-25T06:49:06;4.15;;;1.73;;
66597;SDS011;57424;53.128;6.406;2023-04-25T06:51:31;5.70;;;1.77;;
66597;SDS011;57424;53.128;6.406;2023-04-25T06:53:57;2.95;;;1.40;;
66597;SDS011;57424;53.128;6.406;2023-04-25T06:56:22;4.82;;;1.30;;
66597;SDS011;57424;53.128;6.406;2023-04-25T06:58:48;4.88;;;1.45;;
66597;SDS011;57424;53.128;6.406;2023-04-25T07:01:14;3.80;;;1.42;;
66597;SDS011;57424;53.128;6.406;2023-04-25T07:03:40;3.00;;;1.38;;
66597;SDS011;57424;53.128;6.406;2023-04-25T07:06:05;2.72;;;1.42;;
66597;SDS011;57424;53.128;6.406;2023-04-25T07:08:31;3.15;;;1.40;;
66597;SDS011;57424;53.128;6.406;2023-04-25T07:10:57;2.80;;;1.38;;
66597;SDS011;57424;53.128;6.406;2023-04-25T07:13:22;3.63;;;1.63;;
66597;SDS011;57424;53.128;6.406;2023-04-25T07:15:48;4.13;;;1.50;;
66597;SDS011;57424;53.128;6.406;2023-04-25T07:18:13;5.03;;;1.40;;
66597;SDS011;57424;53.128;6.406;2023-04-25T07:20:39;3.10;;;1.27;;
66597;SDS011;57424;53.128;6.406;2023-04-25T07:23:05;4.07;;;1.60;;
66597;SDS011;57424;53.128;6.406;2023-04-25T07:25:30;4.18;;;1.40;;
66597;SDS011;57424;53.128;6.406;2023-04-25T07:27:56;2.90;;;1.33;;
66597;SDS011;57424;53.128;6.406;2023-04-25T07:30:22;3.08;;;1.40;;
66597;SDS011;57424;53.128;6.406;2023-04-25T07:32:48;3.10;;;1.40;;
66597;SDS011;57424;53.128;6.406;2023-04-25T07:35:15;3.57;;;1.37;;
66597;SDS011;57424;53.128;6.406;2023-04-25T07:37:41;1.95;;;1.23;;
66597;SDS011;57424;53.128;6.406;2023-04-25T07:40:07;2.13;;;1.27;;
66597;SDS011;57424;53.128;6.406;2023-04-25T07:42:34;3.78;;;1.20;;
66597;SDS011;57424;53.128;6.406;2023-04-25T07:45:00;2.97;;;1.50;;
66597;SDS011;57424;53.128;6.406;2023-04-25T07:47:26;3.67;;;1.40;;
66597;SDS011;57424;53.128;6.406;2023-04-25T07:49:51;2.55;;;1.33;;
66597;SDS011;57424;53.128;6.406;2023-04-25T07:52:17;3.50;;;1.55;;
66597;SDS011;57424;53.128;6.406;2023-04-25T07:54:43;3.95;;;1.60;;
66597;SDS011;57424;53.128;6.406;2023-04-25T07:57:08;3.85;;;1.38;;
66597;SDS011;57424;53.128;6.406;2023-04-25T07:59:34;3.30;;;1.25;;
66597;SDS011;57424;53.128;6.406;2023-04-25T08:02:00;3.28;;;1.25;;
66597;SDS011;57424;53.128;6.406;2023-04-25T08:04:26;3.60;;;1.30;;
66597;SDS011;57424;53.128;6.406;2023-04-25T08:06:52;4.25;;;1.27;;
66597;SDS011;57424;53.128;6.406;2023-04-25T08:09:18;2.53;;;1.00;;
66597;SDS011;57424;53.128;6.406;2023-04-25T08:11:45;2.67;;;1.60;;
66597;SDS011;57424;53.128;6.406;2023-04-25T08:14:11;3.78;;;1.30;;
66597;SDS011;57424;53.128;6.406;2023-04-25T08:16:37;3.17;;;1.23;;
66597;SDS011;57424;53.128;6.406;2023-04-25T08:19:03;3.22;;;1.33;;
66597;SDS011;57424;53.128;6.406;2023-04-25T08:21:29;3.65;;;1.50;;
66597;SDS011;57424;53.128;6.406;2023-04-25T08:23:56;2.38;;;1.27;;
66597;SDS011;57424;53.128;6.406;2023-04-25T08:26:23;3.00;;;1.30;;
66597;SDS011;57424;53.128;6.406;2023-04-25T08:28:49;2.58;;;0.98;;
66597;SDS011;57424;53.128;6.406;2023-04-25T08:31:15;3.83;;;1.40;;
66597;SDS011;57424;53.128;6.406;2023-04-25T08:33:41;3.58;;;1.17;;
66597;SDS011;57424;53.128;6.406;2023-04-25T08:36:07;5.15;;;1.38;;
66597;SDS011;57424;53.128;6.406;2023-04-25T08:38:33;3.75;;;1.13;;
66597;SDS011;57424;53.128;6.406;2023-04-25T08:40:58;2.17;;;0.93;;
66597;SDS011;57424;53.128;6.406;2023-04-25T08:43:26;2.03;;;1.30;;
66597;SDS011;57424;53.128;6.406;2023-04-25T08:45:53;2.95;;;1.40;;
66597;SDS011;57424;53.128;6.406;2023-04-25T08:48:23;3.08;;;1.20;;
66597;SDS011;57424;53.128;6.406;2023-04-25T08:50:52;3.67;;;1.20;;
66597;SDS011;57424;53.128;6.406;2023-04-25T08:53:21;3.90;;;1.30;;
66597;SDS011;57424;53.128;6.406;2023-04-25T08:55:50;2.50;;;1.10;;
66597;SDS011;57424;53.128;6.406;2023-04-25T08:58:18;3.22;;;1.40;;
66597;SDS011;57424;53.128;6.406;2023-04-25T09:00:45;1.92;;;1.17;;
66597;SDS011;57424;53.128;6.406;2023-04-25T09:03:12;2.78;;;1.00;;
66597;SDS011;57424;53.128;6.406;2023-04-25T09:05:39;2.58;;;1.20;;
66597;SDS011;57424;53.128;6.406;2023-04-25T09:08:05;2.50;;;1.08;;
66597;SDS011;57424;53.128;6.406;2023-04-25T09:10:31;2.85;;;1.17;;
66597;SDS011;57424;53.128;6.406;2023-04-25T09:15:31;2.90;;;1.17;;
66597;SDS011;57424;53.128;6.406;2023-04-25T09:17:58;4.40;;;1.05;;
66597;SDS011;57424;53.128;6.406;2023-04-25T09:20:24;3.22;;;1.70;;
66597;SDS011;57424;53.128;6.406;2023-04-25T09:23:03;4.72;;;1.48;;
66597;SDS011;57424;53.128;6.406;2023-04-25T09:25:33;3.08;;;1.20;;
66597;SDS011;57424;53.128;6.406;2023-04-25T09:28:04;2.83;;;1.48;;
66597;SDS011;57424;53.128;6.406;2023-04-25T09:30:32;3.53;;;1.50;;
66597;SDS011;57424;53.128;6.406;2023-04-25T09:35:35;4.35;;;1.17;;
66597;SDS011;57424;53.128;6.406;2023-04-25T09:38:08;2.72;;;1.23;;
66597;SDS011;57424;53.128;6.406;2023-04-25T09:40:45;6.97;;;1.15;;
66597;SDS011;57424;53.128;6.406;2023-04-25T09:43:19;3.67;;;1.08;;
66597;SDS011;57424;53.128;6.406;2023-04-25T09:45:48;4.22;;;1.30;;
66597;SDS011;57424;53.128;6.406;2023-04-25T09:48:19;3.85;;;1.00;;
66597;SDS011;57424;53.128;6.406;2023-04-25T09:53:33;2.63;;;1.20;;
66597;SDS011;57424;53.128;6.406;2023-04-25T09:56:00;7.70;;;1.45;;
66597;SDS011;57424;53.128;6.406;2023-04-25T09:58:30;1.92;;;1.20;;
66597;SDS011;57424;53.128;6.406;2023-04-25T10:00:57;4.07;;;1.17;;
66597;SDS011;57424;53.128;6.406;2023-04-25T10:03:32;2.92;;;1.20;;
66597;SDS011;57424;53.128;6.406;2023-04-25T10:06:00;3.67;;;1.15;;
66597;SDS011;57424;53.128;6.406;2023-04-25T10:08:32;4.57;;;1.35;;
66597;SDS011;57424;53.128;6.406;2023-04-25T10:11:00;2.58;;;1.13;;
66597;SDS011;57424;53.128;6.406;2023-04-25T10:15:54;2.85;;;1.00;;
66597;SDS011;57424;53.128;6.406;2023-04-25T10:18:20;3.70;;;1.30;;
66597;SDS011;57424;53.128;6.406;2023-04-25T10:20:46;8.88;;;3.28;;
66597;SDS011;57424;53.128;6.406;2023-04-25T10:23:14;16.65;;;5.63;;
66597;SDS011;57424;53.128;6.406;2023-04-25T10:25:42;18.85;;;6.32;;
66597;SDS011;57424;53.128;6.406;2023-04-25T10:28:08;25.67;;;8.63;;
66597;SDS011;57424;53.128;6.406;2023-04-25T10:30:34;35.60;;;9.65;;
66597;SDS011;57424;53.128;6.406;2023-04-25T10:32:59;41.45;;;11.40;;
66597;SDS011;57424;53.128;6.406;2023-04-25T10:35:26;25.10;;;9.52;;
66597;SDS011;57424;53.128;6.406;2023-04-25T10:37:57;30.75;;;9.13;;
66597;SDS011;57424;53.128;6.406;2023-04-25T10:40:23;21.30;;;8.90;;
66597;SDS011;57424;53.128;6.406;2023-04-25T10:42:49;23.52;;;8.35;;
66597;SDS011;57424;53.128;6.406;2023-04-25T10:45:18;30.05;;;7.85;;
66597;SDS011;57424;53.128;6.406;2023-04-25T10:47:44;25.02;;;7.13;;
66597;SDS011;57424;53.128;6.406;2023-04-25T10:50:10;24.67;;;7.60;;
66597;SDS011;57424;53.128;6.406;2023-04-25T10:52:38;17.83;;;7.38;;
66597;SDS011;57424;53.128;6.406;2023-04-25T10:55:05;18.98;;;6.10;;
66597;SDS011;57424;53.128;6.406;2023-04-25T10:57:41;20.17;;;6.40;;
66597;SDS011;57424;53.128;6.406;2023-04-25T11:02:37;19.63;;;6.07;;
66597;SDS011;57424;53.128;6.406;2023-04-25T11:05:06;17.45;;;6.30;;
66597;SDS011;57424;53.128;6.406;2023-04-25T11:10:17;13.93;;;5.38;;
66597;SDS011;57424;53.128;6.406;2023-04-25T11:12:44;16.50;;;4.82;;
66597;SDS011;57424;53.128;6.406;2023-04-25T11:17:36;14.15;;;4.95;;
66597;SDS011;57424;53.128;6.406;2023-04-25T11:20:04;12.82;;;4.45;;
66597;SDS011;57424;53.128;6.406;2023-04-25T11:22:36;12.43;;;4.28;;
66597;SDS011;57424;53.128;6.406;2023-04-25T11:25:10;17.42;;;4.63;;
66597;SDS011;57424;53.128;6.406;2023-04-25T11:27:37;9.80;;;3.90;;
66597;SDS011;57424;53.128;6.406;2023-04-25T11:30:24;12.80;;;4.45;;
66597;SDS011;57424;53.128;6.406;2023-04-25T11:32:50;10.52;;;3.70;;
66597;SDS011;57424;53.128;6.406;2023-04-25T11:35:17;13.00;;;4.35;;
66597;SDS011;57424;53.128;6.406;2023-04-25T11:37:44;14.48;;;4.18;;
66597;SDS011;57424;53.128;6.406;2023-04-25T11:40:10;11.85;;;4.22;;
66597;SDS011;57424;53.128;6.406;2023-04-25T11:42:42;11.77;;;3.72;;
66597;SDS011;57424;53.128;6.406;2023-04-25T11:45:09;12.77;;;4.13;;
66597;SDS011;57424;53.128;6.406;2023-04-25T11:47:35;10.15;;;3.60;;
66597;SDS011;57424;53.128;6.406;2023-04-25T11:50:02;9.70;;;3.65;;
66597;SDS011;57424;53.128;6.406;2023-04-25T11:52:38;12.32;;;3.80;;
66597;SDS011;57424;53.128;6.406;2023-04-25T11:55:08;11.43;;;3.50;;
66597;SDS011;57424;53.128;6.406;2023-04-25T11:57:45;11.95;;;3.60;;
66597;SDS011;57424;53.128;6.406;2023-04-25T12:00:15;8.95;;;3.10;;
66597;SDS011;57424;53.128;6.406;2023-04-25T12:05:34;10.52;;;3.00;;
66597;SDS011;57424;53.128;6.406;2023-04-25T12:08:12;12.63;;;3.55;;
66597;SDS011;57424;53.128;6.406;2023-04-25T12:10:39;8.68;;;2.60;;
66597;SDS011;57424;53.128;6.406;2023-04-25T12:13:19;9.93;;;3.28;;
66597;SDS011;57424;53.128;6.406;2023-04-25T12:15:45;10.75;;;3.33;;
66597;SDS011;57424;53.128;6.406;2023-04-25T12:18:11;7.50;;;3.13;;
66597;SDS011;57424;53.128;6.406;2023-04-25T12:20:37;9.40;;;2.60;;
66597;SDS011;57424;53.128;6.406;2023-04-25T12:23:05;9.00;;;2.50;;
66597;SDS011;57424;53.128;6.406;2023-04-25T12:28:09;6.65;;;2.25;;
66597;SDS011;57424;53.128;6.406;2023-04-25T12:30:58;10.88;;;2.72;;
66597;SDS011;57424;53.128;6.406;2023-04-25T12:33:25;6.97;;;2.45;;
66597;SDS011;57424;53.128;6.406;2023-04-25T12:35:52;7.97;;;2.90;;
66597;SDS011;57424;53.128;6.406;2023-04-25T12:38:28;7.80;;;2.63;;
66597;SDS011;57424;53.128;6.406;2023-04-25T12:40:55;8.00;;;2.42;;
66597;SDS011;57424;53.128;6.406;2023-04-25T12:43:21;9.65;;;2.90;;
66597;SDS011;57424;53.128;6.406;2023-04-25T12:45:48;8.23;;;2.67;;
66597;SDS011;57424;53.128;6.406;2023-04-25T12:48:17;9.40;;;2.85;;
66597;SDS011;57424;53.128;6.406;2023-04-25T12:50:43;8.20;;;2.95;;
66597;SDS011;57424;53.128;6.406;2023-04-25T12:53:09;5.35;;;2.67;;
66597;SDS011;57424;53.128;6.406;2023-04-25T12:55:35;9.45;;;2.50;;
66597;SDS011;57424;53.128;6.406;2023-04-25T12:58:00;9.65;;;2.33;;
66597;SDS011;57424;53.128;6.406;2023-04-25T13:00:26;7.47;;;2.35;;
66597;SDS011;57424;53.128;6.406;2023-04-25T13:02:52;5.55;;;2.28;;
66597;SDS011;57424;53.128;6.406;2023-04-25T13:05:18;7.38;;;2.60;;
66597;SDS011;57424;53.128;6.406;2023-04-25T13:07:43;6.82;;;2.08;;
66597;SDS011;57424;53.128;6.406;2023-04-25T13:10:09;4.45;;;2.05;;
66597;SDS011;57424;53.128;6.406;2023-04-25T13:12:35;5.47;;;2.08;;
66597;SDS011;57424;53.128;6.406;2023-04-25T13:15:01;5.93;;;2.00;;
66597;SDS011;57424;53.128;6.406;2023-04-25T13:17:26;8.75;;;1.98;;
66597;SDS011;57424;53.128;6.406;2023-04-25T13:19:52;7.75;;;2.60;;
66597;SDS011;57424;53.128;6.406;2023-04-25T13:22:17;5.20;;;2.03;;
66597;SDS011;57424;53.128;6.406;2023-04-25T13:24:45;6.47;;;1.88;;
66597;SDS011;57424;53.128;6.406;2023-04-25T13:27:10;7.32;;;2.63;;
66597;SDS011;57424;53.128;6.406;2023-04-25T13:29:36;7.22;;;2.03;;
66597;SDS011;57424;53.128;6.406;2023-04-25T13:32:03;8.20;;;2.28;;
66597;SDS011;57424;53.128;6.406;2023-04-25T13:34:29;5.43;;;2.15;;
66597;SDS011;57424;53.128;6.406;2023-04-25T13:36:55;5.82;;;1.98;;
66597;SDS011;57424;53.128;6.406;2023-04-25T13:39:21;5.18;;;1.80;;
66597;SDS011;57424;53.128;6.406;2023-04-25T13:41:46;3.90;;;1.60;;
66597;SDS011;57424;53.128;6.406;2023-04-25T13:44:12;5.90;;;1.80;;
66597;SDS011;57424;53.128;6.406;2023-04-25T13:46:37;7.72;;;1.85;;
66597;SDS011;57424;53.128;6.406;2023-04-25T13:49:04;6.13;;;2.00;;
66597;SDS011;57424;53.128;6.406;2023-04-25T13:51:29;6.10;;;1.92;;
66597;SDS011;57424;53.128;6.406;2023-04-25T13:53:55;4.35;;;1.67;;
66597;SDS011;57424;53.128;6.406;2023-04-25T13:56:21;5.90;;;2.08;;
66597;SDS011;57424;53.128;6.406;2023-04-25T13:58:48;5.82;;;2.10;;
66597;SDS011;57424;53.128;6.406;2023-04-25T14:01:14;3.67;;;1.70;;
66597;SDS011;57424;53.128;6.406;2023-04-25T14:03:40;4.75;;;1.80;;
66597;SDS011;57424;53.128;6.406;2023-04-25T14:06:06;5.13;;;2.05;;
66597;SDS011;57424;53.128;6.406;2023-04-25T14:08:33;12.05;;;2.20;;
66597;SDS011;57424;53.128;6.406;2023-04-25T14:10:59;6.70;;;1.80;;
66597;SDS011;57424;53.128;6.406;2023-04-25T14:13:26;5.30;;;1.77;;
66597;SDS011;57424;53.128;6.406;2023-04-25T14:15:51;7.63;;;2.35;;
66597;SDS011;57424;53.128;6.406;2023-04-25T14:18:17;5.55;;;1.95;;
66597;SDS011;57424;53.128;6.406;2023-04-25T14:20:43;3.95;;;1.60;;
66597;SDS011;57424;53.128;6.406;2023-04-25T14:23:09;4.05;;;1.50;;
66597;SDS011;57424;53.128;6.406;2023-04-25T14:25:35;3.63;;;1.50;;
66597;SDS011;57424;53.128;6.406;2023-04-25T14:28:01;6.70;;;2.33;;
66597;SDS011;57424;53.128;6.406;2023-04-25T14:30:27;6.63;;;2.17;;
66597;SDS011;57424;53.128;6.406;2023-04-25T14:32:53;4.82;;;1.60;;
66597;SDS011;57424;53.128;6.406;2023-04-25T14:35:19;5.97;;;1.40;;
66597;SDS011;57424;53.128;6.406;2023-04-25T14:37:44;5.78;;;1.70;;
66597;SDS011;57424;53.128;6.406;2023-04-25T14:40:10;3.92;;;1.67;;
66597;SDS011;57424;53.128;6.406;2023-04-25T14:42:38;4.05;;;1.55;;
66597;SDS011;57424;53.128;6.406;2023-04-25T14:45:06;3.65;;;1.48;;
66597;SDS011;57424;53.128;6.406;2023-04-25T14:47:33;6.85;;;1.70;;
66597;SDS011;57424;53.128;6.406;2023-04-25T14:49:59;4.45;;;1.42;;
66597;SDS011;57424;53.128;6.406;2023-04-25T14:52:26;4.10;;;1.80;;
66597;SDS011;57424;53.128;6.406;2023-04-25T14:54:52;3.65;;;1.30;;
66597;SDS011;57424;53.128;6.406;2023-04-25T14:57:17;2.70;;;1.38;;
66597;SDS011;57424;53.128;6.406;2023-04-25T14:59:43;5.25;;;1.40;;
66597;SDS011;57424;53.128;6.406;2023-04-25T15:02:10;5.50;;;1.60;;
66597;SDS011;57424;53.128;6.406;2023-04-25T15:04:36;4.57;;;1.40;;
66597;SDS011;57424;53.128;6.406;2023-04-25T15:07:01;3.13;;;1.40;;
66597;SDS011;57424;53.128;6.406;2023-04-25T15:09:27;3.08;;;1.48;;
66597;SDS011;57424;53.128;6.406;2023-04-25T15:11:53;2.90;;;1.33;;